Hauptseite
METAR-TAF:

METAR-TAF

Flughäfen :

Linden, New Jersey, Vereinigte Staaten

Breite: 40-37-03N, Länge: 074-14-40W, Höhe: 7 m

Beobachtung

Neuester Wetterbericht von vor 14 Minuten, um 23:55 UTC
Windstille
Temperatur 2°C
Luftfeuchtigkeit 51%
Luftdruck 1029 hPa
Sichtweite: 16.1 km
Himmel klar

METAR: KLDJ 112355Z AUTO 00000KT 10SM CLR 02/M07 A3038 RMK AO2 T00161067 10032 20015

Zeit: 19:09 (00:09 UTC)


TAF: fehlend

Wetterbeobachtungen und Prognosen von mehr als 4000 Flughäfen (METAR und TAF Bericht).

Die verfügbaren Stationen werden durch gelbe und rote Markierungen auf der Karte dargestellt.

Führen Sie die Maus auf sie, um den Namen der Station zu sehen.

Darauf klicken, um die Beobachtung von Wetterbeobachtungen und Prognosen zu sehen.

Um die Karte zu ändern : klicken Sie auf den grünen Tasten mit einem schwarzen Kreuz Zum Vergrößern, auf den grünen Button mit einem Gedankenstrich zu verkleinern, oder auf die grünen Pfeile für benachbarte Karten.


METAR-TAF: